Latest Coastal Weather Observations for Swanbourne

IDW60701

Issued at 11:13 am WST Saturday 5 December 2020 (issued every 10 minutes, with the page automatically refreshed every 10 minutes)

About coastal observations | Map of coastal stations | Coastal observations for WA | Marine services | Other Formats
Station Details ID: 009215 Name: SWANBOURNE Lat: -31.96 Lon: 115.76 Height: 40.96 m
Data from the previous 72 hours. | See also: Recent months at Swanbourne
Date/Time
WST
Wind Sea
Height
m
Swell Vis
km
Cloud Weather Temp
°C
Press
MSL
hPa
Rain since
9am
mm
Dir  Spd
kts
Gust
kts
Height
m
Period
s
Dir
05/11:00am SW 11 16 - - - - - - - 20.7 - 0.0
05/10:30am SW 11 16 - - - - - - - 19.8 - 0.0
05/10:00am S 9 14 - - - - - - - 19.6 - 0.0
05/09:30am SE 8 16 - - - - - - - 18.6 - 0.0
05/09:00am SSE 11 17 - - - - - - - 18.3 - 0.0
05/08:30am SSE 9 15 - - - - - - - 17.2 - 0.0
05/08:00am SSE 10 16 - - - - - - - 17.1 - 0.0
05/07:30am SSE 9 17 - - - - - - - 16.8 - 0.0
05/07:00am SSE 8 12 - - - - - - - 16.4 - 0.0
05/06:30am SSE 7 12 - - - - - - - 15.6 - 0.0
05/06:00am SE 7 13 - - - - - - - 15.4 - 0.0
05/05:30am SE 6 10 - - - - - - - 15.3 - 0.0
05/05:00am SE 5 9 - - - - - - - 15.4 - 0.0
05/04:30am SE 5 9 - - - - - - - 15.4 - 0.0
05/04:00am SE 4 7 - - - - - - - 15.2 - 0.0
05/03:30am SSE 6 9 - - - - - - - 15.1 - 0.0
05/03:00am SSE 7 11 - - - - - - - 15.3 - 0.0
05/02:30am SSE 6 9 - - - - - - - 15.9 - 0.0
05/02:00am SSE 7 10 - - - - - - - 15.9 - 0.0
05/01:30am S 10 17 - - - - - - - 16.6 - 0.0
05/01:00am SSW 10 16 - - - - - - - 17.0 - 0.0
05/12:30am S 9 15 - - - - - - - 17.3 - 0.0
05/12:00am S 11 17 - - - - - - - 17.2 - 0.0
 
Date/Time
WST
Wind Sea
Height
m
Swell Vis
km
Cloud Weather Temp
°C
Press
MSL
hPa
Rain since
9am
mm
Dir  Spd
kts
Gust
kts
Height
m
Period
s
Dir
04/11:30pm SSW 10 15 - - - - - - - 17.9 - 0.0
04/11:00pm S 9 15 - - - - - - - 18.0 - 0.0
04/10:30pm SSW 9 14 - - - - - - - 17.4 - 0.0
04/10:00pm SSW 12 18 - - - - - - - 17.9 - 0.0
04/09:30pm S 9 14 - - - - - - - 17.9 - 0.0
04/09:00pm SSW 12 19 - - - - - - - 18.1 - 0.0
04/08:30pm SSW 13 19 - - - - - - - 18.0 - 0.0
04/08:00pm SSW 13 20 - - - - - - - 17.8 - 0.0
04/07:30pm SSW 12 20 - - - - - - - 18.1 - 0.0
04/07:00pm SSW 13 20 - - - - - - - 18.1 - 0.0
04/06:30pm SSW 13 20 - - - - - - - 18.8 - 0.0
04/06:00pm SSW 14 20 - - - - - - - 19.3 - 0.0
04/05:30pm SSW 14 20 - - - - - - - 20.0 - 0.0
04/05:00pm SW 14 20 - - - - - - - 20.6 - 0.0
04/04:30pm SW 14 22 - - - - - - - 20.2 - 0.0
04/04:00pm SW 15 21 - - - - - - - 21.3 - 0.0
04/03:30pm SW 16 23 - - - - - - - 21.3 - 0.0
04/03:00pm SW 15 20 - - - - - - - 21.5 - 0.0
04/02:30pm WSW 13 19 - - - - - - - 22.0 - 0.0
04/02:00pm WSW 13 17 - - - - - - - 21.1 - 0.0
04/01:30pm WSW 13 19 - - - - - - - 21.2 - 0.0
04/01:00pm WSW 13 17 - - - - - - - 21.7 - 0.0
04/12:30pm WSW 12 18 - - - - - - - 22.2 - 0.0
04/12:00pm WSW 12 17 - - - - - - - 21.6 - 0.0
04/11:30am WSW 12 16 - - - - - - - 21.9 - 0.0
04/11:00am WSW 12 16 - - - - - - - 21.8 - 0.0
04/10:30am WSW 12 17 - - - - - - - 19.9 - 0.0
04/10:00am WSW 11 16 - - - - - - - 20.3 - 0.0
04/09:30am WSW 9 13 - - - - - - - 20.5 - 0.0
04/09:00am WSW 9 11 - - - - - - - 20.6 - 0.0
04/08:30am SW 7 11 - - - - - - - 20.0 - 0.0
04/08:00am SW 7 11 - - - - - - - 19.7 - 0.0
04/07:30am SW 7 11 - - - - - - - 19.1 - 0.0
04/07:00am SSE 2 5 - - - - - - - 18.4 - 0.0
04/06:30am ESE 3 4 - - - - - - - 17.0 - 0.0
04/06:00am SSW 7 12 - - - - - - - 17.4 - 0.0
04/05:30am SSW 8 14 - - - - - - - 17.0 - 0.0
04/05:00am SSW 10 15 - - - - - - - 16.7 - 0.0
04/04:30am SSW 12 18 - - - - - - - 16.9 - 0.0
04/04:00am SSW 12 20 - - - - - - - 17.1 - 0.0
04/03:30am SSW 12 18 - - - - - - - 17.1 - 0.0
04/03:00am SSW 15 24 - - - - - - - 17.4 - 0.0
04/02:30am SSW 14 23 - - - - - - - 17.5 - 0.0
04/02:00am SSW 14 22 - - - - - - - 17.5 - 0.0
04/01:30am SSW 15 22 - - - - - - - 17.4 - 0.0
04/01:00am SSW 15 23 - - - - - - - 17.6 - 0.0
04/12:30am SSW 15 23 - - - - - - - 17.7 - 0.0
04/12:26am SSW 15 25 - - - - - - - 17.6 - 0.0
04/12:00am SSW 15 21 - - - - - - - 17.6 - 0.0
 
Date/Time
WST
Wind Sea
Height
m
Swell Vis
km
Cloud Weather Temp
°C
Press
MSL
hPa
Rain since
9am
mm
Dir  Spd
kts
Gust
kts
Height
m
Period
s
Dir
03/11:30pm SSW 15 24 - - - - - - - 17.7 - 0.0
03/11:00pm SSW 15 22 - - - - - - - 18.1 - 0.0
03/10:30pm SSW 14 20 - - - - - - - 18.2 - 0.0
03/10:00pm SSW 14 22 - - - - - - - 18.3 - 0.0
03/09:30pm SW 16 23 - - - - - - - 18.3 - 0.0
03/09:00pm SW 14 20 - - - - - - - 18.4 - 0.0
03/08:30pm SSW 12 18 - - - - - - - 18.5 - 0.0
03/08:00pm SSW 11 16 - - - - - - - 18.4 - 0.0
03/07:30pm SSW 8 12 - - - - - - - 18.5 - 0.0
03/07:00pm SSW 14 20 - - - - - - - 18.8 - 0.0
03/06:30pm SSW 12 19 - - - - - - - 19.6 - 0.0
03/06:00pm SSW 12 17 - - - - - - - 20.4 - 0.0
03/05:30pm SSW 14 20 - - - - - - - 20.6 - 0.0
03/05:00pm SW 13 19 - - - - - - - 21.2 - 0.0
03/04:30pm SSW 15 22 - - - - - - - 21.4 - 0.0
03/04:00pm SSW 13 21 - - - - - - - 21.8 - 0.0
03/03:30pm SW 13 22 - - - - - - - 22.5 - 0.0
03/03:00pm SW 13 20 - - - - - - - 22.1 - 0.0
03/02:30pm SSW 13 18 - - - - - - - 21.8 - 0.0
03/02:00pm SW 14 19 - - - - - - - 22.1 - 0.0
03/01:30pm SW 12 17 - - - - - - - 22.4 - 0.0
03/01:00pm SW 13 17 - - - - - - - 21.9 - 0.0
03/12:30pm SW 12 17 - - - - - - - 21.5 - 0.0
03/12:00pm SW 11 15 - - - - - - - 22.2 - 0.0
03/11:30am SW 12 16 - - - - - - - 22.1 - 0.0
03/11:00am SW 11 14 - - - - - - - 21.5 - 0.0
03/10:30am SW 10 14 - - - - - - - 21.3 - 0.0
03/10:00am SW 9 13 - - - - - - - 21.9 - 0.0
03/09:30am SSE 5 10 - - - - - - - 22.8 - 0.0
03/09:00am SE 5 8 - - - - - - - 21.2 - 0.0
03/08:30am SSE 5 8 - - - - - - - 19.6 - 0.0
03/08:00am SSE 6 9 - - - - - - - 18.8 - 0.0
03/07:30am SE 6 10 - - - - - - - 18.1 - 0.0
03/07:00am SSE 6 10 - - - - - - - 17.2 - 0.0
03/06:30am SE 5 8 - - - - - - - 16.2 - 0.0
03/06:00am SSE 4 7 - - - - - - - 15.0 - 0.0
03/05:30am SE 4 6 - - - - - - - 13.6 - 0.0
03/05:00am SE 5 7 - - - - - - - 13.3 - 0.0
03/04:30am SE 5 7 - - - - - - - 13.4 - 0.0
03/04:00am ESE 5 6 - - - - - - - 13.7 - 0.0
03/03:30am SSE 4 6 - - - - - - - 14.0 - 0.0
03/03:00am S 6 9 - - - - - - - 14.5 - 0.0
03/02:30am S 5 8 - - - - - - - 14.5 - 0.0
03/02:00am S 4 6 - - - - - - - 14.7 - 0.0
03/01:30am SSE 5 7 - - - - - - - 15.3 - 0.0
03/01:00am SSE 5 7 - - - - - - - 15.5 - 0.0
03/12:30am SSE 7 13 - - - - - - - 16.1 - 0.0
03/12:00am S 7 11 - - - - - - - 16.6 - 0.0
 
Date/Time
WST
Wind Sea
Height
m
Swell Vis
km
Cloud Weather Temp
°C
Press
MSL
hPa
Rain since
9am
mm
Dir  Spd
kts
Gust
kts
Height
m
Period
s
Dir
02/11:30pm S 7 10 - - - - - - - 16.9 - 0.0
02/11:00pm S 8 12 - - - - - - - 17.1 - 0.0
02/10:30pm S 7 11 - - - - - - - 17.2 - 0.0
02/10:00pm S 7 12 - - - - - - - 17.5 - 0.0
02/09:30pm S 8 12 - - - - - - - 17.5 - 0.0
02/09:00pm S 7 11 - - - - - - - 17.6 - 0.0
02/08:30pm S 11 18 - - - - - - - 17.8 - 0.0
02/08:00pm SSW 13 19 - - - - - - - 17.9 - 0.0
02/07:30pm SSW 11 18 - - - - - - - 18.2 - 0.0
02/07:00pm SSW 11 18 - - - - - - - 18.8 - 0.0
02/06:30pm SSW 10 16 - - - - - - - 19.3 - 0.0
02/06:00pm SSW 11 18 - - - - - - - 19.9 - 0.0
02/05:30pm SSW 15 23 - - - - - - - 19.8 - 0.0
02/05:00pm SSW 17 22 - - - - - - - 20.4 - 0.0
02/04:30pm SSW 14 20 - - - - - - - 20.6 - 0.0
02/04:00pm SSW 13 19 - - - - - - - 20.8 - 0.0
02/03:30pm SSW 13 19 - - - - - - - 20.9 - 0.0
02/03:00pm SSW 15 20 - - - - - - - 20.9 - 0.0
02/02:30pm SSW 13 18 - - - - - - - 21.1 - 0.0
02/02:00pm SW 14 19 - - - - - - - 20.7 - 0.0
02/01:30pm SW 13 18 - - - - - - - 21.5 - 0.0
02/01:00pm SW 13 18 - - - - - - - 21.2 - 0.0
02/12:30pm SW 13 19 - - - - - - - 21.0 - 0.0
02/12:00pm SW 10 16 - - - - - - - 21.4 - 0.0
02/11:30am SW 11 15 - - - - - - - 21.1 - 0.0

Other formats

Comma delimited format used in spreadsheet applications
http://www.bom.gov.au/fwo/IDW60701/IDW60701.94614.axf

JavaScript Object Notation format (JSON) in row-major order
http://www.bom.gov.au/fwo/IDW60701/IDW60701.94614.json

Data quality

Most of these data are generated automatically and are frequently updated. Quality checks on data are not normally performed. It is possible for incorrect values to appear. Refer to information at About Latest Weather Observations and please check the disclaimer before using these data.